EDLW Airport Information

Runway Information
Runway 06 Length 6562 ft width 148 ft
Elevation 418 ft Threshold 984 ft Heading 61
Runway 24 Length 6562 ft Width 148 ft
Elevation 401 ft Threshold 984 ft Heading 241
Airport Frequencies
Type AFIS Name LANGEN INF Frequency 129.875 MHZ
Type APP Name LANGEN RAD Frequency 125.225 MHZ
Type ATIS Name ATIS Frequency 125.125 MHZ
Type GND Name GND Frequency 121.825 MHZ
Type TWR Name TWR Frequency 134.175 MHZ
Airport Navaids
Type VOR-DME Name Dortmund Frequency 112700 KHZ
Type VOR-DME Name Wickede Frequency 108650 KHZ
Type NDB Name Dortmund Frequency 357 KHZ
Airport Weather Information & NOTAM
ADDS - METARS form results

(2209 UTC 24 January 2022)
Data provider http://aviationweather.gov/metar/data/
 
METAR text: EDLW 242150Z 20003KT 160V240 9999 OVC009 03/01 Q1033
Conditions at: EDLW (DORTMUND/WICKEDE, DE) observed 2150 UTC 24 January 2022
Temperature: 3.0°C (37°F)
Dewpoint: 1.0°C (34°F) [RH = 87%]
Pressure (altimeter): 30.50 inches Hg (1033.0 mb)
Winds: from the SSW (200 degrees) at 3 MPH (3 knots; 1.5 m/s)
Visibility: 6 or more miles (10+ km)
Ceiling: 900 feet AGL
Clouds: overcast cloud deck at 900 feet AGL
Weather: no significant weather observed at this time

METAR text: EDLW 242120Z 16004KT 130V190 9999 OVC009 03/01 Q1034
Conditions at: EDLW (DORTMUND/WICKEDE, DE) observed 2120 UTC 24 January 2022
Temperature: 3.0°C (37°F)
Dewpoint: 1.0°C (34°F) [RH = 87%]
Pressure (altimeter): 30.53 inches Hg (1034.0 mb)
Winds: from the SSE (160 degrees) at 5 MPH (4 knots; 2.1 m/s)
Visibility: 6 or more miles (10+ km)
Ceiling: 900 feet AGL
Clouds: overcast cloud deck at 900 feet AGL
Weather: no significant weather observed at this time

Forecast for: EDLW (DORTMUND/WICKEDE, DE)
Text: TAF EDLW 241700Z 2418/2518 VRB03KT 9999 BKN012
Forecast period: 1800 UTC 24 January 2022 to 1200 UTC 25 January 2022
Forecast type: FROM: standard forecast or significant change
Winds: variable direction winds at 3 MPH (3 knots; 1.5 m/s)
Visibility: 6 or more miles (10+ km)
Ceiling: 1200 feet AGL
Clouds: broken clouds at 1200 feet AGL
Weather: no significant weather forecast for this period
Text: PROB30
Forecast period: 2000 UTC 24 January 2022 to 1100 UTC 25 January 2022
Forecast type: TEMPORARY: The following changes expected for less than half the time period
Visibility: 1.86 miles (2.99 km)
Ceiling: 800 feet AGL
Clouds: broken clouds at 800 feet AGL
Weather: BR  (mist)
Text: TEMPO 2420/2511 3000 BR BKN008
Forecast period: 1200 to 1800 UTC 25 January 2022
Forecast type: BECOMING: Conditions expected to become as follows by 1500 UTC 25 January 2022
Winds: variable direction winds at 3 MPH (3 knots; 1.5 m/s)
Visibility: 6 or more miles (10+ km)
Ceiling: 2000 feet AGL
Clouds: broken clouds at 2000 feet AGL
Weather: no significant weather forecast for this period